Terminal Aerodrome Forecast
Issued by NWS Mt. Holly, NJ

Home | Current Version | Previous Version | Text Only | Print | Product List | Glossary On
Versions: 1 2 3 4 5 6 7 8 9 10 11 12 13 14 15 16 17 18 19 20 21 22 23 24 25 26
000
FTUS41 KPHI 171100
TAFPHL
TAF
KPHL 171120Z 1712/1818 VRB04KT P6SM SCT060
     FM171700 21006KT P6SM SKC
     FM180200 VRB02KT P6SM SCT060
     FM181400 32006KT P6SM BKN060=

USA.gov is the U.S. government's official web portal to all federal, state and local government web resources and services.